Webster, New Hampshire
Current Conditions -  °F | °C
As of 6:51 PM on Monday 20 Oct 2014 (Local Time) from KCON Reporting Station
Broken Clouds Broken Clouds  
Wind Chill: 49°   Ceiling: 8000
Heat Index: 49°   Visibility: 10mi
Dew Point: 34°   Wind: 3mph
Humidity: 56%   Direction: 150°SSE
Pressure: 29.96"   Gusts: NA
Location:  43.3208°N, 71.6638°W
Report Text: KCON 202251Z AUTO 15003KT 10SM BKN080 BKN100 09/01 A2996 RMK AO2 SLP146 T00940011
Loading
Personal Weather Stations






























Interactive Weather Map
Tropical Storm Tracking
New forecast layout! Learn more

10-Day Weather Forecast

Advertisements
Track Severe Weather on mobile